Time;durP1;ratioP1;P1;durP2;ratioP2;P2;SDS_P1;SDS_P2;PMS_P1;PMS_P2;Temp;Humidity;BMP_temperature;BMP_pressure;BME280_temperature;BME280_humidity;BME280_pressure;Samples;Min_cycle;Max_cycle;Signal;HPM_P1;HPM_P2
2021/12/19 00:02:29;;;;;;;8.83;4.57;;;9.40;60.20;;;;;;5063858;28;20555;-88
2021/12/19 00:10:22;;;;;;;9.70;5.50;;;9.50;60.40;;;;;;5073380;28;20820;-87
2021/12/19 00:12:50;;;;;;;7.70;4.10;;;9.50;61.10;;;;;;5076857;27;20642;-87
2021/12/19 00:15:17;;;;;;;9.10;4.87;;;9.50;60.00;;;;;;5073158;28;20937;-87
2021/12/19 00:17:44;;;;;;;6.53;4.23;;;9.60;59.70;;;;;;5094894;27;20446;-88
2021/12/19 00:20:12;;;;;;;9.40;5.23;;;9.50;59.90;;;;;;5092694;28;21092;-87
2021/12/19 00:22:39;;;;;;;9.67;4.70;;;9.40;59.90;;;;;;5086265;28;20447;-88
2021/12/19 00:25:06;;;;;;;7.27;5.07;;;9.20;61.00;;;;;;5077112;28;20451;-88
2021/12/19 00:27:35;;;;;;;9.80;6.60;;;9.30;60.80;;;;;;5061232;28;20488;-88
2021/12/19 00:30:02;;;;;;;11.20;5.43;;;9.30;60.40;;;;;;5091537;27;20454;-89
2021/12/19 00:32:29;;;;;;;14.67;8.07;;;9.40;60.60;;;;;;5074711;28;20903;-88
2021/12/19 00:34:56;;;;;;;9.43;5.40;;;9.30;60.50;;;;;;5094445;28;20999;-88
2021/12/19 00:37:24;;;;;;;10.60;6.13;;;9.30;60.70;;;;;;5065153;28;20817;-87
2021/12/19 00:39:51;;;;;;;9.20;5.03;;;9.40;60.50;;;;;;5058524;28;21021;-87
2021/12/19 00:42:27;;;;;;;9.77;5.50;;;9.30;60.60;;;;;;5076832;28;20471;-87
2021/12/19 00:44:57;;;;;;;11.43;5.90;;;9.20;60.90;;;;;;5075890;28;20958;-89
2021/12/19 00:47:24;;;;;;;11.83;6.07;;;9.10;61.50;;;;;;5090508;27;20443;-89
2021/12/19 00:49:51;;;;;;;9.70;5.07;;;8.90;61.40;;;;;;5067250;28;20458;-87
2021/12/19 00:52:18;;;;;;;9.13;4.93;;;9.00;61.90;;;;;;5072859;28;21002;-86
2021/12/19 00:54:45;;;;;;;9.30;5.63;;;9.00;61.90;;;;;;5075670;28;20478;-87
2021/12/19 00:57:12;;;;;;;9.63;4.63;;;8.90;62.10;;;;;;5073011;28;20965;-87
2021/12/19 00:59:39;;;;;;;7.00;4.47;;;8.90;62.50;;;;;;5073984;28;20443;-89
2021/12/19 01:02:07;;;;;;;8.97;5.53;;;8.90;62.40;;;;;;5075373;28;20592;-87
2021/12/19 01:04:34;;;;;;;10.10;5.53;;;9.00;62.40;;;;;;5075371;28;20455;-87
2021/12/19 01:07:02;;;;;;;11.70;7.73;;;9.00;62.10;;;;;;5079276;27;20458;-85
2021/12/19 01:09:30;;;;;;;10.37;7.33;;;8.90;62.30;;;;;;5073319;28;20452;-87
2021/12/19 01:11:58;;;;;;;14.93;7.50;;;9.00;62.40;;;;;;5088686;28;20999;-87
2021/12/19 01:14:25;;;;;;;15.00;8.03;;;9.00;62.10;;;;;;5072777;28;20477;-88
2021/12/19 01:16:52;;;;;;;19.43;7.40;;;8.90;62.40;;;;;;5073847;28;20982;-88
2021/12/19 01:19:20;;;;;;;16.00;8.30;;;8.90;62.40;;;;;;5063696;28;20462;-85
2021/12/19 01:21:47;;;;;;;11.73;7.23;;;8.80;62.90;;;;;;5073712;28;20486;-87
2021/12/19 01:24:14;;;;;;;10.17;5.70;;;8.70;63.00;;;;;;5078678;28;20455;-89
2021/12/19 01:26:42;;;;;;;11.37;6.33;;;8.60;63.50;;;;;;5089917;28;20492;-88
2021/12/19 01:29:09;;;;;;;8.47;4.57;;;8.50;63.70;;;;;;5058926;28;20454;-87
2021/12/19 01:31:36;;;;;;;8.47;5.60;;;8.40;64.20;;;;;;5055690;28;20484;-88
2021/12/19 01:34:03;;;;;;;6.37;4.63;;;8.30;64.50;;;;;;5072669;28;20950;-87
2021/12/19 01:36:32;;;;;;;6.50;4.60;;;8.40;64.70;;;;;;5087184;28;20823;-87
2021/12/19 01:38:59;;;;;;;5.30;3.60;;;8.20;65.30;;;;;;5082785;28;20465;-87
2021/12/19 01:41:26;;;;;;;7.60;4.07;;;8.40;65.10;;;;;;5075228;28;20485;-87
2021/12/19 01:43:54;;;;;;;7.83;3.67;;;8.50;65.50;;;;;;5091524;28;20927;-87
2021/12/19 01:46:21;;;;;;;5.17;3.20;;;8.60;64.10;;;;;;5062465;28;20468;-86
2021/12/19 01:48:48;;;;;;;4.83;3.30;;;8.50;64.00;;;;;;5042641;28;20439;-87
2021/12/19 01:51:15;;;;;;;6.93;4.07;;;8.60;64.00;;;;;;5092468;28;20490;-87
2021/12/19 01:53:44;;;;;;;5.63;4.37;;;8.60;63.90;;;;;;5047679;28;20478;-85
2021/12/19 01:56:10;;;;;;;4.07;3.10;;;8.60;63.90;;;;;;5091444;28;20475;-88
2021/12/19 01:58:38;;;;;;;5.33;3.37;;;8.80;63.90;;;;;;5083166;28;20459;-87
2021/12/19 02:01:05;;;;;;;4.27;3.87;;;8.90;63.60;;;;;;5056041;28;20521;-87
2021/12/19 02:03:35;;;;;;;5.60;3.43;;;9.20;63.20;;;;;;5056279;28;20447;-87
2021/12/19 02:06:02;;;;;;;5.00;3.27;;;9.20;62.50;;;;;;5093262;28;20478;-84
2021/12/19 02:08:29;;;;;;;5.77;3.83;;;9.20;62.10;;;;;;5057177;28;20454;-88
2021/12/19 02:10:58;;;;;;;5.47;3.50;;;9.20;62.30;;;;;;5091618;28;20568;-87
2021/12/19 02:13:25;;;;;;;6.80;4.00;;;9.20;62.30;;;;;;5083199;28;20485;-88
2021/12/19 02:15:52;;;;;;;6.70;3.93;;;9.30;62.40;;;;;;5094827;28;20842;-88
2021/12/19 02:18:22;;;;;;;5.10;3.30;;;9.40;62.10;;;;;;5063528;28;20462;-87
2021/12/19 02:20:53;;;;;;;4.60;3.43;;;9.40;61.80;;;;;;5093194;28;20985;-87
2021/12/19 02:23:22;;;;;;;6.07;3.53;;;9.40;62.10;;;;;;5064913;28;20486;-89
2021/12/19 02:25:50;;;;;;;7.40;4.40;;;9.40;61.80;;;;;;5066510;28;20448;-88
2021/12/19 02:28:18;;;;;;;4.57;3.33;;;9.30;61.90;;;;;;5059835;28;20463;-88
2021/12/19 02:30:45;;;;;;;4.43;3.50;;;9.30;62.10;;;;;;5065317;28;20467;-88
2021/12/19 02:33:17;;;;;;;8.47;4.40;;;9.40;62.10;;;;;;5082642;28;20454;-88
2021/12/19 02:35:51;;;;;;;4.40;3.53;;;9.50;61.70;;;;;;5091216;28;20496;-87
2021/12/19 02:39:08;;;;;;;5.53;3.77;;;9.60;62.00;;;;;;5073884;28;20471;-88
2021/12/19 02:49:34;;;;;;;9.80;3.93;;;9.80;61.00;;;;;;5064477;28;20444;-88
2021/12/19 02:52:03;;;;;;;6.30;3.70;;;9.40;61.50;;;;;;5093267;28;20846;-88
2021/12/19 02:54:31;;;;;;;4.90;3.60;;;9.10;62.60;;;;;;5077973;28;20977;-87
2021/12/19 02:56:58;;;;;;;3.90;3.50;;;9.10;62.50;;;;;;5056794;28;20459;-88
2021/12/19 02:59:25;;;;;;;7.93;4.17;;;9.20;62.50;;;;;;5076692;28;20485;-88
2021/12/19 03:01:52;;;;;;;7.37;4.47;;;9.10;62.40;;;;;;5076146;28;20877;-87
2021/12/19 03:04:19;;;;;;;10.03;4.93;;;9.20;62.50;;;;;;5075754;28;20443;-87
2021/12/19 03:06:48;;;;;;;9.93;5.87;;;9.10;62.60;;;;;;5091636;28;21013;-87
2021/12/19 03:09:22;;;;;;;5.37;4.17;;;9.10;62.70;;;;;;5095025;28;20462;-87
2021/12/19 03:12:23;;;;;;;14.90;4.90;;;9.10;62.60;;;;;;5079870;28;20794;-87
2021/12/19 03:17:59;;;;;;;8.60;5.23;;;9.30;62.20;;;;;;5015446;28;20442;-87
2021/12/19 03:20:26;;;;;;;6.40;4.50;;;9.20;62.50;;;;;;5080183;27;20459;-87
2021/12/19 03:22:53;;;;;;;7.17;4.10;;;9.00;62.90;;;;;;5058175;28;20463;-87
2021/12/19 03:25:21;;;;;;;10.00;6.10;;;8.90;63.60;;;;;;5069049;28;20975;-86
2021/12/19 03:27:49;;;;;;;9.57;4.80;;;8.90;63.70;;;;;;5080103;27;20484;-86
2021/12/19 03:30:16;;;;;;;8.50;4.67;;;9.00;63.40;;;;;;5095995;28;20458;-88
2021/12/19 03:32:43;;;;;;;9.37;5.37;;;9.10;63.50;;;;;;5078014;28;20458;-87
2021/12/19 03:35:10;;;;;;;10.87;5.07;;;9.20;63.00;;;;;;5079044;28;21140;-87
2021/12/19 03:37:37;;;;;;;9.83;5.40;;;9.10;62.70;;;;;;5078557;28;20466;-87
2021/12/19 03:40:11;;;;;;;10.50;5.37;;;9.20;63.30;;;;;;5091553;28;20461;-89
2021/12/19 03:42:40;;;;;;;8.50;5.00;;;9.20;62.70;;;;;;5068608;28;20803;-87
2021/12/19 03:45:11;;;;;;;9.00;4.90;;;9.10;62.70;;;;;;5095489;27;20452;-88
2021/12/19 03:47:39;;;;;;;12.00;6.10;;;9.20;62.80;;;;;;5085829;28;20481;-87
2021/12/19 03:50:10;;;;;;;8.07;4.93;;;9.30;62.70;;;;;;5077870;28;20459;-87
2021/12/19 03:52:37;;;;;;;9.87;6.00;;;9.50;62.40;;;;;;5061201;28;20469;-87
2021/12/19 03:55:05;;;;;;;14.13;5.20;;;9.60;62.00;;;;;;5053041;28;20482;-87
2021/12/19 03:57:32;;;;;;;9.43;5.50;;;9.60;61.50;;;;;;5092354;28;20456;-88
2021/12/19 03:59:59;;;;;;;6.67;4.80;;;9.70;61.60;;;;;;5061313;28;20455;-86
2021/12/19 04:02:28;;;;;;;10.60;5.47;;;9.70;61.60;;;;;;5071796;28;20477;-88
2021/12/19 04:04:58;;;;;;;11.60;5.87;;;9.80;61.40;;;;;;5066926;28;20444;-87
2021/12/19 04:07:27;;;;;;;9.33;5.10;;;9.80;61.20;;;;;;5078580;28;20436;-87
2021/12/19 04:09:54;;;;;;;8.93;5.90;;;9.70;61.40;;;;;;5059420;28;20459;-89
2021/12/19 04:12:24;;;;;;;9.77;5.33;;;9.80;61.40;;;;;;5085383;28;20486;-87
2021/12/19 04:14:51;;;;;;;10.50;4.83;;;9.90;61.20;;;;;;5074600;28;20622;-87
2021/12/19 04:17:18;;;;;;;9.93;5.47;;;9.80;61.20;;;;;;5094330;28;21013;-88
2021/12/19 04:19:46;;;;;;;10.23;4.87;;;9.80;61.10;;;;;;5076307;28;20443;-88
2021/12/19 04:22:13;;;;;;;17.13;6.23;;;9.90;61.30;;;;;;5092306;28;20498;-87
2021/12/19 04:24:40;;;;;;;10.00;5.33;;;9.90;61.00;;;;;;5076082;28;20467;-87
2021/12/19 04:27:07;;;;;;;7.27;4.93;;;10.00;59.80;;;;;;5075472;28;20453;-87
2021/12/19 04:29:34;;;;;;;8.33;5.40;;;10.00;59.60;;;;;;5059340;28;20448;-87
2021/12/19 04:32:01;;;;;;;9.60;6.10;;;10.00;60.10;;;;;;5096170;28;20471;-87
2021/12/19 04:34:27;;;;;;;8.20;5.77;;;10.00;59.40;;;;;;5061470;28;20466;-87
2021/12/19 04:37:02;;;;;;;10.17;5.50;;;10.00;59.30;;;;;;5076761;28;20479;-87
2021/12/19 04:39:38;;;;;;;8.93;5.70;;;10.00;59.40;;;;;;5094230;28;20542;-87
2021/12/19 04:43:21;;;;;;;8.20;4.73;;;9.80;60.80;;;;;;5062318;28;20470;-87
2021/12/19 04:53:51;;;;;;;8.00;5.00;;;9.80;61.20;;;;;;5054016;28;20447;-87
2021/12/19 04:56:35;;;;;;;8.73;4.80;;;9.80;61.20;;;;;;5066455;28;20484;-88
2021/12/19 05:05:02;;;;;;;11.97;6.67;;;9.20;62.40;;;;;;5057642;28;20834;-88
2021/12/19 05:15:38;;;;;;;17.60;9.17;;;9.30;62.70;;;;;;5091152;28;20509;-87
2021/12/19 05:18:08;;;;;;;13.87;7.47;;;9.20;62.70;;;;;;5076951;28;20458;-89
2021/12/19 05:20:36;;;;;;;15.53;7.80;;;9.40;62.80;;;;;;5069498;28;20479;-89
2021/12/19 05:23:10;;;;;;;13.70;7.30;;;9.50;62.30;;;;;;5092455;28;20484;-87
2021/12/19 05:25:38;;;;;;;13.43;7.37;;;9.60;62.30;;;;;;5065980;28;20446;-87
2021/12/19 05:28:05;;;;;;;11.67;7.17;;;9.50;62.10;;;;;;5093673;28;20466;-88
2021/12/19 05:30:32;;;;;;;11.87;8.23;;;9.50;62.10;;;;;;5067013;28;20479;-87
2021/12/19 05:33:01;;;;;;;13.23;8.27;;;9.60;62.30;;;;;;5095802;28;20451;-85
2021/12/19 05:35:46;;;;;;;16.60;9.73;;;9.60;62.30;;;;;;5074675;28;20471;-88
2021/12/19 05:46:29;;;;;;;12.50;7.97;;;9.50;62.30;;;;;;5076761;27;20447;-87
2021/12/19 05:48:57;;;;;;;12.13;7.47;;;9.50;62.30;;;;;;5098358;28;20455;-87
2021/12/19 05:51:24;;;;;;;21.47;9.37;;;9.50;62.20;;;;;;5060348;28;20480;-87
2021/12/19 05:53:51;;;;;;;20.43;9.23;;;9.70;63.20;;;;;;5068446;28;20856;-88
2021/12/19 05:56:19;;;;;;;18.70;8.67;;;9.70;62.20;;;;;;5078796;28;20467;-87
2021/12/19 05:58:46;;;;;;;17.63;8.60;;;9.80;61.80;;;;;;5080852;28;20809;-88
2021/12/19 06:01:13;;;;;;;15.40;9.60;;;9.70;61.70;;;;;;5068855;28;20844;-87
2021/12/19 06:03:40;;;;;;;17.50;9.03;;;9.70;61.50;;;;;;5079662;28;20450;-86
2021/12/19 06:06:07;;;;;;;13.80;8.80;;;9.80;61.40;;;;;;5080170;28;20521;-87
2021/12/19 06:08:34;;;;;;;15.67;8.63;;;9.70;61.30;;;;;;5086861;28;20456;-87
2021/12/19 06:11:02;;;;;;;14.77;8.97;;;9.50;61.70;;;;;;5101715;28;20826;-88
2021/12/19 06:13:30;;;;;;;13.27;8.53;;;9.40;61.80;;;;;;5084811;28;20455;-87
2021/12/19 06:15:57;;;;;;;17.73;8.27;;;9.40;62.10;;;;;;5073132;28;20467;-88
2021/12/19 06:18:25;;;;;;;17.50;10.53;;;9.40;62.10;;;;;;5084171;28;20454;-86
2021/12/19 06:20:52;;;;;;;16.83;9.27;;;9.30;62.00;;;;;;5076258;28;20972;-87
2021/12/19 06:23:18;;;;;;;18.27;9.33;;;9.30;62.60;;;;;;5080644;28;20455;-88
2021/12/19 06:25:46;;;;;;;16.93;9.90;;;9.30;62.50;;;;;;5093485;28;20454;-88
2021/12/19 06:28:13;;;;;;;16.77;8.23;;;9.50;62.30;;;;;;5065670;28;20455;-89
2021/12/19 06:30:42;;;;;;;16.87;9.57;;;9.50;62.00;;;;;;5068370;28;20490;-88
2021/12/19 06:33:09;;;;;;;15.17;9.73;;;9.50;61.60;;;;;;5062652;28;20452;-88
2021/12/19 06:35:36;;;;;;;16.67;9.10;;;9.20;62.30;;;;;;5066013;28;20447;-90
2021/12/19 06:38:04;;;;;;;21.43;9.80;;;9.20;62.50;;;;;;5096835;28;20819;-87
2021/12/19 06:40:31;;;;;;;14.53;9.00;;;9.20;62.30;;;;;;5066814;28;20459;-88
2021/12/19 06:42:58;;;;;;;13.77;8.07;;;9.00;62.60;;;;;;5071840;27;20465;-87
2021/12/19 06:45:25;;;;;;;17.70;8.67;;;9.00;62.60;;;;;;5083747;28;20461;-85
2021/12/19 06:47:54;;;;;;;15.03;9.00;;;9.10;62.60;;;;;;5102611;27;20505;-87
2021/12/19 06:50:21;;;;;;;12.90;7.50;;;9.20;62.40;;;;;;5101478;28;20460;-87
2021/12/19 06:52:49;;;;;;;18.33;9.60;;;9.20;62.10;;;;;;5097902;28;20652;-87
2021/12/19 06:55:17;;;;;;;17.70;10.17;;;9.30;62.00;;;;;;5083909;28;20985;-87
2021/12/19 06:57:46;;;;;;;15.97;8.03;;;9.20;62.20;;;;;;5088890;28;20528;-87
2021/12/19 07:00:16;;;;;;;13.33;8.30;;;9.20;62.20;;;;;;5067252;28;20458;-88
2021/12/19 07:02:43;;;;;;;18.73;9.23;;;9.30;62.10;;;;;;5103749;27;20520;-87
2021/12/19 07:05:11;;;;;;;13.87;8.77;;;9.30;61.70;;;;;;5080843;28;20554;-87
2021/12/19 07:07:39;;;;;;;14.53;8.40;;;9.40;61.60;;;;;;5088095;28;20444;-87
2021/12/19 07:10:08;;;;;;;17.57;10.13;;;9.30;61.40;;;;;;5085481;28;20459;-89
2021/12/19 07:12:35;;;;;;;16.77;9.03;;;9.40;61.60;;;;;;5080431;28;20995;-86
2021/12/19 07:15:03;;;;;;;16.23;9.10;;;9.50;61.30;;;;;;5077390;28;20447;-86
2021/12/19 07:17:30;;;;;;;18.10;9.80;;;9.50;61.20;;;;;;5098703;28;20467;-87
2021/12/19 07:19:57;;;;;;;16.03;9.90;;;9.60;61.20;;;;;;5083196;27;20454;-88
2021/12/19 07:22:26;;;;;;;14.70;8.37;;;9.50;61.20;;;;;;5074335;28;20506;-88
2021/12/19 07:24:53;;;;;;;17.60;10.37;;;9.60;61.10;;;;;;5074513;28;20455;-88
2021/12/19 07:27:20;;;;;;;16.90;9.53;;;9.60;61.10;;;;;;5061740;28;20463;-88
2021/12/19 07:29:47;;;;;;;16.03;8.83;;;9.70;61.00;;;;;;5065218;28;20461;-88
2021/12/19 07:32:14;;;;;;;12.27;7.97;;;9.70;60.30;;;;;;5100027;27;20907;-88
2021/12/19 07:34:43;;;;;;;14.70;8.17;;;9.60;60.10;;;;;;5079147;28;20504;-87
2021/12/19 07:37:10;;;;;;;15.13;8.20;;;9.60;60.40;;;;;;5095314;28;20831;-87
2021/12/19 07:39:52;;;;;;;16.93;8.00;;;9.60;60.40;;;;;;5073881;28;20454;-87
2021/12/19 07:42:19;;;;;;;12.50;8.03;;;9.50;60.40;;;;;;5085055;28;20478;-87
2021/12/19 07:44:47;;;;;;;14.80;7.00;;;9.50;60.40;;;;;;5061653;28;20447;-87
2021/12/19 07:47:15;;;;;;;11.70;6.90;;;9.60;60.40;;;;;;5078724;28;20463;-83
2021/12/19 07:49:42;;;;;;;13.83;8.03;;;9.60;60.40;;;;;;5096087;28;20480;-87
2021/12/19 07:52:08;;;;;;;14.33;7.60;;;9.70;60.30;;;;;;5078566;28;20562;-87
2021/12/19 07:54:40;;;;;;;14.83;7.73;;;9.70;60.30;;;;;;5096608;27;20450;-87
2021/12/19 07:57:07;;;;;;;10.63;6.80;;;9.60;60.10;;;;;;5077191;28;20471;-85
2021/12/19 07:59:35;;;;;;;12.20;7.13;;;9.60;60.20;;;;;;5062768;28;20985;-87
2021/12/19 08:02:04;;;;;;;13.17;7.90;;;9.60;60.10;;;;;;5077834;28;20479;-85
2021/12/19 08:04:32;;;;;;;14.10;9.07;;;9.60;60.10;;;;;;5100351;28;20455;-87
2021/12/19 08:06:59;;;;;;;11.37;7.43;;;9.70;60.10;;;;;;5079498;28;20444;-86
2021/12/19 08:09:36;;;;;;;11.57;6.70;;;9.60;59.90;;;;;;5097385;27;20448;-86
2021/12/19 08:12:05;;;;;;;11.73;7.23;;;9.60;60.20;;;;;;5103267;28;20981;-87
2021/12/19 08:14:32;;;;;;;12.77;6.77;;;9.50;60.30;;;;;;5079723;28;20456;-88
2021/12/19 08:17:00;;;;;;;11.93;7.40;;;9.60;60.20;;;;;;5082416;28;20467;-87
2021/12/19 08:19:27;;;;;;;14.93;9.53;;;9.80;60.20;;;;;;5104061;27;20451;-85
2021/12/19 08:21:54;;;;;;;24.70;14.37;;;9.90;60.00;;;;;;5067504;28;20484;-85
2021/12/19 08:24:20;;;;;;;22.67;14.90;;;10.00;58.90;;;;;;5057168;28;21397;-85
2021/12/19 08:26:47;;;;;;;13.57;9.10;;;10.00;58.70;;;;;;5092215;28;20451;-83
2021/12/19 08:29:16;;;;;;;15.40;8.70;;;10.10;58.60;;;;;;5090744;27;20496;-86
2021/12/19 08:31:43;;;;;;;19.30;13.17;;;10.10;58.60;;;;;;5061766;28;20942;-86
2021/12/19 08:34:09;;;;;;;15.40;9.10;;;10.00;58.50;;;;;;5093277;28;20447;-86
2021/12/19 08:36:37;;;;;;;17.23;12.30;;;9.90;59.40;;;;;;5075014;28;20471;-87
2021/12/19 08:39:04;;;;;;;16.30;10.00;;;9.80;59.90;;;;;;5094817;27;20471;-87
2021/12/19 08:41:32;;;;;;;18.90;9.47;;;9.80;60.00;;;;;;5058222;28;20471;-87
2021/12/19 08:43:59;;;;;;;14.13;8.27;;;9.90;60.20;;;;;;5092248;27;20680;-86
2021/12/19 08:46:28;;;;;;;12.33;7.70;;;9.70;60.20;;;;;;5091205;28;20456;-86
2021/12/19 08:48:55;;;;;;;12.40;7.70;;;9.70;60.00;;;;;;5092860;28;20537;-86
2021/12/19 08:51:22;;;;;;;15.83;8.53;;;9.70;60.20;;;;;;5065987;28;20482;-86
2021/12/19 08:53:49;;;;;;;12.00;8.30;;;9.70;60.40;;;;;;5065986;28;20454;-81
2021/12/19 08:56:15;;;;;;;14.97;8.53;;;9.80;60.30;;;;;;5093947;28;20473;-87
2021/12/19 08:58:42;;;;;;;16.83;10.50;;;9.70;60.50;;;;;;5062349;28;20475;-87
2021/12/19 09:01:09;;;;;;;17.67;11.87;;;9.70;60.00;;;;;;5093654;27;20482;-85
2021/12/19 09:03:38;;;;;;;19.37;11.67;;;9.80;60.40;;;;;;5074293;28;20458;-86
2021/12/19 09:06:05;;;;;;;18.13;10.43;;;9.80;60.10;;;;;;5092483;28;20685;-86
2021/12/19 09:08:32;;;;;;;12.27;7.10;;;9.70;60.30;;;;;;5073260;28;20986;-85
2021/12/19 09:10:59;;;;;;;56.47;34.57;;;9.80;60.10;;;;;;5073529;28;20475;-85
2021/12/19 09:13:26;;;;;;;16.10;9.10;;;9.80;59.70;;;;;;5075158;28;20710;-85
2021/12/19 09:15:54;;;;;;;14.50;8.70;;;9.90;59.70;;;;;;5089904;28;20776;-86
2021/12/19 09:18:21;;;;;;;12.50;9.30;;;9.90;59.80;;;;;;5074560;28;20518;-83
2021/12/19 09:20:51;;;;;;;17.90;11.63;;;9.80;59.50;;;;;;5074428;28;20837;-86
2021/12/19 09:23:18;;;;;;;16.03;9.20;;;9.70;60.00;;;;;;5095761;28;20462;-85
2021/12/19 09:25:46;;;;;;;15.83;8.90;;;9.60;59.90;;;;;;5074276;28;20460;-84
2021/12/19 09:28:13;;;;;;;13.80;9.27;;;9.60;59.90;;;;;;5064964;28;20508;-86
2021/12/19 09:30:42;;;;;;;14.20;8.10;;;9.80;60.20;;;;;;5072747;28;20475;-85
2021/12/19 09:33:09;;;;;;;15.00;9.10;;;9.90;59.70;;;;;;5041194;28;20467;-86
2021/12/19 09:35:36;;;;;;;15.77;11.27;;;9.80;59.00;;;;;;5075012;28;20950;-84
2021/12/19 09:38:06;;;;;;;14.77;7.50;;;9.80;59.00;;;;;;5082314;28;20466;-86
2021/12/19 09:40:35;;;;;;;15.73;9.23;;;10.00;58.20;;;;;;5089895;28;20471;-87
2021/12/19 09:43:05;;;;;;;9.37;6.60;;;10.10;58.30;;;;;;5092681;27;21040;-86
2021/12/19 09:45:33;;;;;;;10.80;6.70;;;10.00;58.10;;;;;;5077798;28;20440;-86
2021/12/19 09:48:00;;;;;;;9.97;7.60;;;10.00;58.00;;;;;;5089421;28;20448;-85
2021/12/19 09:50:29;;;;;;;10.90;6.43;;;9.80;59.10;;;;;;5072603;28;20456;-86
2021/12/19 09:52:57;;;;;;;37.43;16.83;;;9.90;59.30;;;;;;5082059;28;20458;-85
2021/12/19 09:55:25;;;;;;;11.23;7.80;;;9.90;58.90;;;;;;5072675;28;20466;-86
2021/12/19 09:57:54;;;;;;;9.70;7.00;;;9.90;58.90;;;;;;5063380;27;20478;-86
2021/12/19 10:00:22;;;;;;;11.33;7.20;;;10.00;58.00;;;;;;5093709;28;20460;-84
2021/12/19 10:02:49;;;;;;;11.63;8.13;;;10.00;58.00;;;;;;5062294;28;20462;-86
2021/12/19 10:05:20;;;;;;;14.47;7.90;;;9.90;59.30;;;;;;5075826;28;20463;-86
2021/12/19 10:07:50;;;;;;;17.63;7.83;;;9.80;59.30;;;;;;5088040;28;20459;-85
2021/12/19 10:10:25;;;;;;;9.50;6.57;;;9.70;59.20;;;;;;5055172;28;20452;-83
2021/12/19 10:12:58;;;;;;;10.70;8.00;;;9.80;59.50;;;;;;5089840;28;20447;-86
2021/12/19 10:15:32;;;;;;;12.17;7.80;;;9.70;59.50;;;;;;5085908;28;20532;-86
2021/12/19 10:18:04;;;;;;;15.70;8.20;;;9.90;59.70;;;;;;5096110;27;20479;-86
2021/12/19 10:20:47;;;;;;;13.03;8.50;;;10.00;58.70;;;;;;5097663;28;20450;-87
2021/12/19 10:23:17;;;;;;;14.83;7.83;;;10.00;58.40;;;;;;5095574;28;20475;-86
2021/12/19 10:25:44;;;;;;;11.43;7.70;;;10.00;58.20;;;;;;5065508;28;20443;-86
2021/12/19 10:28:13;;;;;;;13.00;6.57;;;10.10;58.40;;;;;;5078997;28;20444;-86
2021/12/19 10:30:43;;;;;;;10.60;7.73;;;10.20;58.50;;;;;;5082016;28;22804;-86
2021/12/19 10:33:12;;;;;;;11.80;7.67;;;10.10;58.60;;;;;;5091330;28;20800;-86
2021/12/19 10:35:41;;;;;;;12.87;8.90;;;9.90;58.80;;;;;;5094889;28;20994;-87
2021/12/19 10:38:14;;;;;;;20.33;9.17;;;10.00;58.60;;;;;;5079817;28;20487;-86
2021/12/19 10:40:45;;;;;;;21.20;11.50;;;10.00;58.40;;;;;;5076966;28;20558;-85
2021/12/19 10:43:16;;;;;;;21.93;11.60;;;9.80;59.40;;;;;;5097353;28;20459;-86
2021/12/19 10:45:47;;;;;;;13.33;8.70;;;10.00;58.90;;;;;;5077048;28;20443;-85
2021/12/19 10:48:24;;;;;;;22.20;11.30;;;10.00;58.40;;;;;;5072304;28;20452;-86
2021/12/19 10:50:58;;;;;;;20.60;11.67;;;10.00;58.50;;;;;;5075998;28;20843;-85
2021/12/19 10:53:30;;;;;;;15.50;8.90;;;10.00;58.50;;;;;;5091092;28;20456;-86
2021/12/19 10:55:58;;;;;;;18.13;9.97;;;10.10;58.60;;;;;;5100658;27;20553;-86
2021/12/19 10:58:34;;;;;;;15.40;9.17;;;10.30;58.20;;;;;;5094476;28;20474;-86
2021/12/19 11:01:08;;;;;;;16.83;8.80;;;10.20;58.10;;;;;;5091881;28;20562;-87
2021/12/19 11:03:42;;;;;;;15.17;10.57;;;10.30;58.20;;;;;;5077011;28;20445;-86
2021/12/19 11:06:15;;;;;;;17.97;10.53;;;10.30;58.30;;;;;;5097274;27;20447;-87
2021/12/19 11:08:43;;;;;;;14.53;8.50;;;10.30;58.20;;;;;;5094509;28;20458;-85
2021/12/19 11:11:11;;;;;;;18.43;9.53;;;10.30;57.80;;;;;;5068442;28;20516;-87
2021/12/19 11:13:40;;;;;;;17.77;9.90;;;10.20;58.10;;;;;;5086851;28;20450;-86
2021/12/19 11:16:06;;;;;;;14.77;8.90;;;10.40;58.00;;;;;;5094264;28;20460;-87
2021/12/19 11:18:34;;;;;;;15.70;8.87;;;10.40;57.80;;;;;;5064435;28;20478;-85
2021/12/19 11:21:01;;;;;;;17.93;9.30;;;10.10;57.60;;;;;;5078846;28;20940;-85
2021/12/19 11:23:27;;;;;;;17.00;9.73;;;9.80;59.20;;;;;;5094188;28;20458;-82
2021/12/19 11:25:56;;;;;;;16.63;8.33;;;9.90;59.20;;;;;;5067003;28;20471;-86
2021/12/19 11:28:23;;;;;;;15.70;9.03;;;9.90;59.70;;;;;;5090495;28;20481;-85
2021/12/19 11:30:54;;;;;;;17.30;9.47;;;10.00;58.60;;;;;;5053635;28;21042;-87
2021/12/19 11:33:36;;;;;;;17.73;9.70;;;10.00;58.60;;;;;;5093369;28;20455;-85
2021/12/19 11:36:05;;;;;;;17.57;9.83;;;10.10;58.40;;;;;;5077580;28;20939;-86
2021/12/19 11:38:32;;;;;;;19.17;9.20;;;10.10;58.20;;;;;;5058500;28;20474;-86
2021/12/19 11:41:07;;;;;;;17.50;10.20;;;9.90;59.10;;;;;;5094681;28;20478;-87
2021/12/19 11:43:37;;;;;;;21.03;9.17;;;9.70;59.80;;;;;;5080160;28;20561;-86
2021/12/19 11:46:13;;;;;;;21.50;13.43;;;9.50;59.80;;;;;;5095398;28;20887;-87
2021/12/19 11:48:40;;;;;;;19.73;10.47;;;9.70;60.70;;;;;;5065293;28;20454;-86
2021/12/19 11:51:08;;;;;;;20.50;10.97;;;9.50;60.10;;;;;;5045095;28;20908;-86
2021/12/19 11:53:39;;;;;;;21.10;11.40;;;9.70;60.30;;;;;;5060047;28;21338;-86
2021/12/19 11:56:09;;;;;;;24.83;12.37;;;9.80;59.90;;;;;;5058721;28;20439;-86
2021/12/19 11:58:45;;;;;;;15.57;8.20;;;10.10;59.00;;;;;;5045793;28;20510;-86
2021/12/19 12:01:16;;;;;;;16.53;9.20;;;10.00;58.20;;;;;;5058041;27;20859;-86
2021/12/19 12:03:49;;;;;;;22.30;9.67;;;10.10;58.70;;;;;;5063914;28;20452;-84
2021/12/19 12:06:36;;;;;;;18.60;9.67;;;10.30;58.70;;;;;;5077932;28;20466;-86
2021/12/19 12:09:26;;;;;;;20.00;8.53;;;10.30;58.20;;;;;;5094482;27;20803;-86
2021/12/19 12:12:21;;;;;;;18.50;9.80;;;10.30;58.20;;;;;;5075547;28;20474;-88
2021/12/19 12:15:03;;;;;;;19.00;9.27;;;10.30;58.20;;;;;;5094464;27;20953;-86
2021/12/19 12:17:37;;;;;;;20.97;10.10;;;10.50;58.00;;;;;;5080212;28;20536;-85
2021/12/19 12:20:17;;;;;;;17.23;8.90;;;10.40;57.80;;;;;;5077936;28;20490;-85
2021/12/19 12:22:59;;;;;;;13.77;8.70;;;10.40;58.10;;;;;;5077797;28;20494;-86
2021/12/19 12:25:34;;;;;;;15.93;9.83;;;10.10;58.70;;;;;;5077300;28;20861;-84
2021/12/19 12:28:06;;;;;;;26.00;12.70;;;10.10;58.50;;;;;;5076684;28;20442;-86
2021/12/19 12:30:45;;;;;;;21.33;10.87;;;10.10;58.40;;;;;;5074495;28;20836;-87
2021/12/19 12:33:16;;;;;;;47.53;23.50;;;10.30;58.70;;;;;;5090674;28;20559;-86
2021/12/19 12:35:46;;;;;;;19.00;9.00;;;10.20;58.20;;;;;;5076455;28;20454;-86
2021/12/19 12:38:13;;;;;;;20.40;8.60;;;10.20;58.00;;;;;;5073614;28;20459;-86
2021/12/19 12:40:53;;;;;;;19.33;8.50;;;10.20;58.00;;;;;;5075112;28;20481;-86
2021/12/19 12:43:22;;;;;;;17.67;8.90;;;10.10;58.60;;;;;;5074414;28;20830;-84
2021/12/19 12:46:03;;;;;;;20.10;9.20;;;10.10;57.50;;;;;;5072996;28;20502;-86
2021/12/19 12:48:51;;;;;;;14.63;7.83;;;10.00;57.90;;;;;;5092212;27;21085;-86
2021/12/19 12:51:27;;;;;;;21.60;9.73;;;10.10;58.20;;;;;;5075059;28;20572;-84
2021/12/19 12:53:56;;;;;;;17.77;9.50;;;10.10;58.40;;;;;;5075738;28;20473;-86
2021/12/19 12:56:27;;;;;;;15.87;9.77;;;10.10;58.80;;;;;;5075702;28;20444;-86
2021/12/19 12:58:56;;;;;;;21.47;10.50;;;10.20;58.60;;;;;;5073765;28;20847;-85
2021/12/19 13:01:26;;;;;;;20.70;10.90;;;10.30;58.00;;;;;;5091925;28;20468;-86
2021/12/19 13:04:14;;;;;;;23.13;10.17;;;10.40;58.00;;;;;;5094913;27;20459;-87
2021/12/19 13:06:52;;;;;;;20.33;10.83;;;10.30;57.40;;;;;;5074257;28;20469;-86
2021/12/19 13:09:22;;;;;;;19.80;9.97;;;10.10;58.00;;;;;;5082740;28;20443;-86
2021/12/19 13:11:51;;;;;;;16.67;8.23;;;10.10;58.10;;;;;;5078131;28;21057;-86
2021/12/19 13:14:22;;;;;;;18.13;10.50;;;9.90;59.30;;;;;;5075559;28;20447;-84
2021/12/19 13:16:52;;;;;;;20.80;11.27;;;10.10;58.60;;;;;;5078307;28;20455;-84
2021/12/19 13:19:48;;;;;;;27.33;14.40;;;10.30;58.30;;;;;;5093540;28;20569;-86
2021/12/19 13:22:18;;;;;;;19.73;10.13;;;10.30;58.20;;;;;;5080347;28;20493;-86
2021/12/19 13:24:46;;;;;;;20.13;10.10;;;10.30;58.10;;;;;;5072597;28;20456;-87
2021/12/19 13:27:16;;;;;;;24.73;10.53;;;10.30;58.10;;;;;;5073969;28;20547;-87
2021/12/19 13:30:00;;;;;;;21.23;10.20;;;10.40;57.90;;;;;;5081969;28;20436;-87
2021/12/19 13:32:30;;;;;;;23.60;11.20;;;10.50;57.60;;;;;;5081245;28;20479;-86
2021/12/19 13:35:02;;;;;;;26.93;12.60;;;10.50;57.60;;;;;;5091644;28;20442;-86
2021/12/19 13:37:33;;;;;;;15.97;9.30;;;10.70;57.50;;;;;;5092976;28;20450;-85
2021/12/19 13:40:03;;;;;;;19.00;9.10;;;10.80;56.90;;;;;;5076675;28;20460;-83
2021/12/19 13:42:49;;;;;;;20.97;9.97;;;10.80;57.00;;;;;;5074041;28;21076;-83
2021/12/19 13:45:43;;;;;;;17.97;8.47;;;10.80;57.00;;;;;;5076686;27;20487;-87
2021/12/19 13:48:22;;;;;;;15.97;9.10;;;10.70;56.80;;;;;;5088597;28;20825;-87